sensor_id;sensor_type;location;lat;lon;timestamp;P1;durP1;ratioP1;P2;durP2;ratioP2
29214;SDS011;16252;49.816;7.964;2022-08-21T00:00:58;3.72;;;2.22;;
29214;SDS011;16252;49.816;7.964;2022-08-21T00:03:24;4.07;;;2.05;;
29214;SDS011;16252;49.816;7.964;2022-08-21T00:05:50;4.80;;;2.03;;
29214;SDS011;16252;49.816;7.964;2022-08-21T00:08:17;3.45;;;2.17;;
29214;SDS011;16252;49.816;7.964;2022-08-21T00:10:43;5.72;;;1.80;;
29214;SDS011;16252;49.816;7.964;2022-08-21T00:13:09;3.60;;;1.98;;
29214;SDS011;16252;49.816;7.964;2022-08-21T00:15:36;3.40;;;1.88;;
29214;SDS011;16252;49.816;7.964;2022-08-21T00:18:03;3.90;;;2.13;;
29214;SDS011;16252;49.816;7.964;2022-08-21T00:20:30;3.85;;;2.42;;
29214;SDS011;16252;49.816;7.964;2022-08-21T00:22:55;4.72;;;2.35;;
29214;SDS011;16252;49.816;7.964;2022-08-21T00:25:21;3.50;;;2.08;;
29214;SDS011;16252;49.816;7.964;2022-08-21T00:27:46;3.90;;;2.00;;
29214;SDS011;16252;49.816;7.964;2022-08-21T00:30:12;6.72;;;2.42;;
29214;SDS011;16252;49.816;7.964;2022-08-21T00:32:41;3.00;;;1.80;;
29214;SDS011;16252;49.816;7.964;2022-08-21T00:35:08;6.40;;;2.17;;
29214;SDS011;16252;49.816;7.964;2022-08-21T00:37:36;5.35;;;2.55;;
29214;SDS011;16252;49.816;7.964;2022-08-21T00:40:02;4.65;;;1.98;;
29214;SDS011;16252;49.816;7.964;2022-08-21T00:42:29;3.20;;;2.33;;
29214;SDS011;16252;49.816;7.964;2022-08-21T00:44:55;3.60;;;2.20;;
29214;SDS011;16252;49.816;7.964;2022-08-21T00:47:21;4.60;;;2.10;;
29214;SDS011;16252;49.816;7.964;2022-08-21T00:49:46;4.10;;;2.13;;
29214;SDS011;16252;49.816;7.964;2022-08-21T00:52:17;3.50;;;2.00;;
29214;SDS011;16252;49.816;7.964;2022-08-21T00:54:45;8.15;;;2.03;;
29214;SDS011;16252;49.816;7.964;2022-08-21T00:57:14;3.72;;;1.90;;
29214;SDS011;16252;49.816;7.964;2022-08-21T00:59:45;5.38;;;2.05;;
29214;SDS011;16252;49.816;7.964;2022-08-21T01:02:14;3.13;;;2.22;;
29214;SDS011;16252;49.816;7.964;2022-08-21T01:04:42;4.07;;;2.00;;
29214;SDS011;16252;49.816;7.964;2022-08-21T01:07:08;3.72;;;2.10;;
29214;SDS011;16252;49.816;7.964;2022-08-21T01:09:34;2.42;;;1.75;;
29214;SDS011;16252;49.816;7.964;2022-08-21T01:12:00;2.38;;;1.85;;
29214;SDS011;16252;49.816;7.964;2022-08-21T01:14:25;4.28;;;1.85;;
29214;SDS011;16252;49.816;7.964;2022-08-21T01:16:51;3.40;;;2.08;;
29214;SDS011;16252;49.816;7.964;2022-08-21T01:19:18;3.78;;;1.80;;
29214;SDS011;16252;49.816;7.964;2022-08-21T01:21:45;5.30;;;2.42;;
29214;SDS011;16252;49.816;7.964;2022-08-21T01:24:11;4.05;;;2.25;;
29214;SDS011;16252;49.816;7.964;2022-08-21T01:26:37;3.83;;;2.15;;
29214;SDS011;16252;49.816;7.964;2022-08-21T01:31:52;3.35;;;1.98;;
29214;SDS011;16252;49.816;7.964;2022-08-21T01:34:18;5.03;;;2.28;;
29214;SDS011;16252;49.816;7.964;2022-08-21T01:36:44;4.70;;;2.30;;
29214;SDS011;16252;49.816;7.964;2022-08-21T01:39:10;3.97;;;2.35;;
29214;SDS011;16252;49.816;7.964;2022-08-21T01:41:36;4.93;;;2.17;;
29214;SDS011;16252;49.816;7.964;2022-08-21T01:44:01;3.75;;;1.95;;
29214;SDS011;16252;49.816;7.964;2022-08-21T01:46:26;5.32;;;2.22;;
29214;SDS011;16252;49.816;7.964;2022-08-21T01:48:52;5.28;;;2.47;;
29214;SDS011;16252;49.816;7.964;2022-08-21T01:51:17;3.55;;;1.95;;
29214;SDS011;16252;49.816;7.964;2022-08-21T01:53:43;4.07;;;2.13;;
29214;SDS011;16252;49.816;7.964;2022-08-21T01:56:10;3.53;;;2.00;;
29214;SDS011;16252;49.816;7.964;2022-08-21T01:58:37;3.17;;;2.10;;
29214;SDS011;16252;49.816;7.964;2022-08-21T02:01:03;3.03;;;1.98;;
29214;SDS011;16252;49.816;7.964;2022-08-21T02:03:29;3.38;;;1.90;;
29214;SDS011;16252;49.816;7.964;2022-08-21T02:05:55;5.28;;;2.50;;
29214;SDS011;16252;49.816;7.964;2022-08-21T02:08:20;2.67;;;1.95;;
29214;SDS011;16252;49.816;7.964;2022-08-21T02:10:50;3.40;;;1.90;;
29214;SDS011;16252;49.816;7.964;2022-08-21T02:13:16;3.58;;;2.38;;
29214;SDS011;16252;49.816;7.964;2022-08-21T02:15:42;3.35;;;2.03;;
29214;SDS011;16252;49.816;7.964;2022-08-21T02:18:08;3.50;;;2.30;;
29214;SDS011;16252;49.816;7.964;2022-08-21T02:20:35;3.22;;;2.17;;
29214;SDS011;16252;49.816;7.964;2022-08-21T02:23:03;4.32;;;2.20;;
29214;SDS011;16252;49.816;7.964;2022-08-21T02:25:29;3.20;;;2.15;;
29214;SDS011;16252;49.816;7.964;2022-08-21T02:27:55;4.07;;;1.90;;
29214;SDS011;16252;49.816;7.964;2022-08-21T02:30:22;3.53;;;1.85;;
29214;SDS011;16252;49.816;7.964;2022-08-21T02:32:51;2.97;;;2.28;;
29214;SDS011;16252;49.816;7.964;2022-08-21T02:35:16;5.93;;;2.35;;
29214;SDS011;16252;49.816;7.964;2022-08-21T02:37:48;4.72;;;2.28;;
29214;SDS011;16252;49.816;7.964;2022-08-21T02:40:23;3.22;;;1.75;;
29214;SDS011;16252;49.816;7.964;2022-08-21T02:42:51;4.38;;;1.98;;
29214;SDS011;16252;49.816;7.964;2022-08-21T02:45:16;4.28;;;2.15;;
29214;SDS011;16252;49.816;7.964;2022-08-21T02:47:52;5.10;;;2.42;;
29214;SDS011;16252;49.816;7.964;2022-08-21T02:50:22;3.65;;;2.10;;
29214;SDS011;16252;49.816;7.964;2022-08-21T02:52:49;3.60;;;2.10;;
29214;SDS011;16252;49.816;7.964;2022-08-21T02:55:17;3.22;;;2.08;;
29214;SDS011;16252;49.816;7.964;2022-08-21T02:57:46;2.40;;;1.97;;
29214;SDS011;16252;49.816;7.964;2022-08-21T03:00:13;3.60;;;2.13;;
29214;SDS011;16252;49.816;7.964;2022-08-21T03:02:40;3.65;;;2.35;;
29214;SDS011;16252;49.816;7.964;2022-08-21T03:05:06;3.92;;;2.22;;
29214;SDS011;16252;49.816;7.964;2022-08-21T03:07:33;3.58;;;2.28;;
29214;SDS011;16252;49.816;7.964;2022-08-21T03:09:59;3.95;;;2.45;;
29214;SDS011;16252;49.816;7.964;2022-08-21T03:12:24;3.83;;;2.03;;
29214;SDS011;16252;49.816;7.964;2022-08-21T03:14:49;2.92;;;1.98;;
29214;SDS011;16252;49.816;7.964;2022-08-21T03:17:15;4.45;;;1.98;;
29214;SDS011;16252;49.816;7.964;2022-08-21T03:19:40;5.18;;;2.10;;
29214;SDS011;16252;49.816;7.964;2022-08-21T03:22:05;3.28;;;2.10;;
29214;SDS011;16252;49.816;7.964;2022-08-21T03:24:31;3.42;;;2.38;;
29214;SDS011;16252;49.816;7.964;2022-08-21T03:26:56;4.05;;;2.25;;
29214;SDS011;16252;49.816;7.964;2022-08-21T03:29:21;4.72;;;2.95;;
29214;SDS011;16252;49.816;7.964;2022-08-21T03:31:47;4.20;;;2.30;;
29214;SDS011;16252;49.816;7.964;2022-08-21T03:34:12;4.53;;;2.40;;
29214;SDS011;16252;49.816;7.964;2022-08-21T03:36:38;3.80;;;2.13;;
29214;SDS011;16252;49.816;7.964;2022-08-21T03:39:04;2.88;;;2.13;;
29214;SDS011;16252;49.816;7.964;2022-08-21T03:41:30;4.30;;;2.22;;
29214;SDS011;16252;49.816;7.964;2022-08-21T03:43:55;5.63;;;2.33;;
29214;SDS011;16252;49.816;7.964;2022-08-21T03:46:20;5.43;;;2.10;;
29214;SDS011;16252;49.816;7.964;2022-08-21T03:48:45;5.90;;;2.40;;
29214;SDS011;16252;49.816;7.964;2022-08-21T03:51:11;4.05;;;2.05;;
29214;SDS011;16252;49.816;7.964;2022-08-21T03:53:37;4.43;;;2.42;;
29214;SDS011;16252;49.816;7.964;2022-08-21T03:56:02;4.70;;;2.67;;
29214;SDS011;16252;49.816;7.964;2022-08-21T03:58:29;3.53;;;2.30;;
29214;SDS011;16252;49.816;7.964;2022-08-21T04:00:55;4.15;;;2.20;;
29214;SDS011;16252;49.816;7.964;2022-08-21T04:03:23;4.10;;;2.45;;
29214;SDS011;16252;49.816;7.964;2022-08-21T04:05:49;4.65;;;2.38;;
29214;SDS011;16252;49.816;7.964;2022-08-21T04:08:14;4.18;;;2.28;;
29214;SDS011;16252;49.816;7.964;2022-08-21T04:10:42;3.78;;;2.25;;
29214;SDS011;16252;49.816;7.964;2022-08-21T04:13:08;3.88;;;2.40;;
29214;SDS011;16252;49.816;7.964;2022-08-21T04:15:34;2.90;;;1.90;;
29214;SDS011;16252;49.816;7.964;2022-08-21T04:18:00;3.78;;;2.22;;
29214;SDS011;16252;49.816;7.964;2022-08-21T04:20:26;4.18;;;2.17;;
29214;SDS011;16252;49.816;7.964;2022-08-21T04:22:52;4.32;;;2.10;;
29214;SDS011;16252;49.816;7.964;2022-08-21T04:25:18;2.63;;;1.98;;
29214;SDS011;16252;49.816;7.964;2022-08-21T04:27:45;4.28;;;2.08;;
29214;SDS011;16252;49.816;7.964;2022-08-21T04:30:11;3.50;;;2.22;;
29214;SDS011;16252;49.816;7.964;2022-08-21T04:32:37;4.57;;;2.22;;
29214;SDS011;16252;49.816;7.964;2022-08-21T04:35:04;4.65;;;2.42;;
29214;SDS011;16252;49.816;7.964;2022-08-21T04:37:33;6.22;;;2.75;;
29214;SDS011;16252;49.816;7.964;2022-08-21T04:39:58;6.50;;;2.13;;
29214;SDS011;16252;49.816;7.964;2022-08-21T04:42:24;4.25;;;1.92;;
29214;SDS011;16252;49.816;7.964;2022-08-21T04:44:51;4.68;;;2.15;;
29214;SDS011;16252;49.816;7.964;2022-08-21T04:47:16;4.80;;;2.00;;
29214;SDS011;16252;49.816;7.964;2022-08-21T04:49:42;9.00;;;3.65;;
29214;SDS011;16252;49.816;7.964;2022-08-21T04:52:08;3.85;;;2.10;;
29214;SDS011;16252;49.816;7.964;2022-08-21T04:54:34;5.07;;;2.47;;
29214;SDS011;16252;49.816;7.964;2022-08-21T04:57:00;4.18;;;2.20;;
29214;SDS011;16252;49.816;7.964;2022-08-21T04:59:35;4.85;;;2.13;;
29214;SDS011;16252;49.816;7.964;2022-08-21T05:02:05;3.42;;;2.20;;
29214;SDS011;16252;49.816;7.964;2022-08-21T05:04:32;3.53;;;2.63;;
29214;SDS011;16252;49.816;7.964;2022-08-21T05:07:03;4.30;;;2.25;;
29214;SDS011;16252;49.816;7.964;2022-08-21T05:09:32;4.20;;;2.03;;
29214;SDS011;16252;49.816;7.964;2022-08-21T05:11:57;4.15;;;2.35;;
29214;SDS011;16252;49.816;7.964;2022-08-21T05:14:23;5.47;;;2.75;;
29214;SDS011;16252;49.816;7.964;2022-08-21T05:16:48;3.50;;;2.08;;
29214;SDS011;16252;49.816;7.964;2022-08-21T05:19:14;2.72;;;1.98;;
29214;SDS011;16252;49.816;7.964;2022-08-21T05:21:41;2.55;;;1.98;;
29214;SDS011;16252;49.816;7.964;2022-08-21T05:24:09;5.63;;;1.98;;
29214;SDS011;16252;49.816;7.964;2022-08-21T05:26:35;7.05;;;2.47;;
29214;SDS011;16252;49.816;7.964;2022-08-21T05:29:01;8.68;;;2.30;;
29214;SDS011;16252;49.816;7.964;2022-08-21T05:31:27;8.18;;;2.63;;
29214;SDS011;16252;49.816;7.964;2022-08-21T05:33:52;6.25;;;2.40;;
29214;SDS011;16252;49.816;7.964;2022-08-21T05:36:18;5.07;;;2.50;;
29214;SDS011;16252;49.816;7.964;2022-08-21T05:38:43;4.55;;;2.08;;
29214;SDS011;16252;49.816;7.964;2022-08-21T05:41:09;2.65;;;2.03;;
29214;SDS011;16252;49.816;7.964;2022-08-21T05:43:34;6.43;;;2.42;;
29214;SDS011;16252;49.816;7.964;2022-08-21T05:46:01;3.40;;;2.20;;
29214;SDS011;16252;49.816;7.964;2022-08-21T05:48:27;4.80;;;2.20;;
29214;SDS011;16252;49.816;7.964;2022-08-21T05:50:52;6.15;;;2.55;;
29214;SDS011;16252;49.816;7.964;2022-08-21T05:53:20;2.95;;;2.20;;
29214;SDS011;16252;49.816;7.964;2022-08-21T05:55:47;3.30;;;2.00;;
29214;SDS011;16252;49.816;7.964;2022-08-21T05:58:16;4.25;;;2.25;;
29214;SDS011;16252;49.816;7.964;2022-08-21T06:00:44;4.25;;;1.98;;
29214;SDS011;16252;49.816;7.964;2022-08-21T06:03:20;3.75;;;2.25;;
29214;SDS011;16252;49.816;7.964;2022-08-21T06:05:51;3.63;;;2.20;;
29214;SDS011;16252;49.816;7.964;2022-08-21T06:08:18;3.78;;;2.20;;
29214;SDS011;16252;49.816;7.964;2022-08-21T06:10:44;5.45;;;3.00;;
29214;SDS011;16252;49.816;7.964;2022-08-21T06:13:10;4.72;;;2.03;;
29214;SDS011;16252;49.816;7.964;2022-08-21T06:15:36;6.50;;;2.15;;
29214;SDS011;16252;49.816;7.964;2022-08-21T06:18:02;5.57;;;2.63;;
29214;SDS011;16252;49.816;7.964;2022-08-21T06:20:27;3.63;;;2.22;;
29214;SDS011;16252;49.816;7.964;2022-08-21T06:22:53;2.70;;;2.17;;
29214;SDS011;16252;49.816;7.964;2022-08-21T06:25:19;5.38;;;2.45;;
29214;SDS011;16252;49.816;7.964;2022-08-21T06:27:44;4.32;;;2.40;;
29214;SDS011;16252;49.816;7.964;2022-08-21T06:30:09;3.97;;;2.05;;
29214;SDS011;16252;49.816;7.964;2022-08-21T06:32:35;3.80;;;2.15;;
29214;SDS011;16252;49.816;7.964;2022-08-21T06:35:02;5.45;;;2.40;;
29214;SDS011;16252;49.816;7.964;2022-08-21T06:37:28;6.22;;;2.33;;
29214;SDS011;16252;49.816;7.964;2022-08-21T06:39:53;4.22;;;2.22;;
29214;SDS011;16252;49.816;7.964;2022-08-21T06:42:18;5.00;;;2.25;;
29214;SDS011;16252;49.816;7.964;2022-08-21T06:44:43;4.97;;;2.45;;
29214;SDS011;16252;49.816;7.964;2022-08-21T06:47:09;4.07;;;2.47;;
29214;SDS011;16252;49.816;7.964;2022-08-21T06:49:35;2.90;;;2.20;;
29214;SDS011;16252;49.816;7.964;2022-08-21T06:52:01;4.78;;;2.22;;
29214;SDS011;16252;49.816;7.964;2022-08-21T06:54:27;8.30;;;3.22;;
29214;SDS011;16252;49.816;7.964;2022-08-21T06:56:52;4.22;;;2.45;;
29214;SDS011;16252;49.816;7.964;2022-08-21T06:59:17;8.00;;;2.45;;
29214;SDS011;16252;49.816;7.964;2022-08-21T07:01:43;4.72;;;2.67;;
29214;SDS011;16252;49.816;7.964;2022-08-21T07:04:08;3.92;;;2.45;;
29214;SDS011;16252;49.816;7.964;2022-08-21T07:06:33;5.78;;;3.20;;
29214;SDS011;16252;49.816;7.964;2022-08-21T07:08:59;3.85;;;2.60;;
29214;SDS011;16252;49.816;7.964;2022-08-21T07:11:26;5.90;;;2.28;;
29214;SDS011;16252;49.816;7.964;2022-08-21T07:13:51;4.18;;;2.20;;
29214;SDS011;16252;49.816;7.964;2022-08-21T07:16:19;4.93;;;2.15;;
29214;SDS011;16252;49.816;7.964;2022-08-21T07:18:45;4.97;;;2.85;;
29214;SDS011;16252;49.816;7.964;2022-08-21T07:21:11;4.78;;;2.65;;
29214;SDS011;16252;49.816;7.964;2022-08-21T07:23:38;6.28;;;2.80;;
29214;SDS011;16252;49.816;7.964;2022-08-21T07:26:06;4.47;;;2.78;;
29214;SDS011;16252;49.816;7.964;2022-08-21T07:28:32;5.55;;;2.72;;
29214;SDS011;16252;49.816;7.964;2022-08-21T07:30:58;3.90;;;2.30;;
29214;SDS011;16252;49.816;7.964;2022-08-21T07:33:27;4.22;;;1.77;;
29214;SDS011;16252;49.816;7.964;2022-08-21T07:35:54;3.10;;;2.10;;
29214;SDS011;16252;49.816;7.964;2022-08-21T07:38:20;5.05;;;2.03;;
29214;SDS011;16252;49.816;7.964;2022-08-21T07:40:46;4.10;;;2.40;;
29214;SDS011;16252;49.816;7.964;2022-08-21T07:43:12;4.40;;;2.00;;
29214;SDS011;16252;49.816;7.964;2022-08-21T07:45:38;4.10;;;2.25;;
29214;SDS011;16252;49.816;7.964;2022-08-21T07:48:03;3.35;;;2.13;;
29214;SDS011;16252;49.816;7.964;2022-08-21T07:50:29;4.88;;;2.30;;
29214;SDS011;16252;49.816;7.964;2022-08-21T07:52:55;3.47;;;2.33;;
29214;SDS011;16252;49.816;7.964;2022-08-21T07:55:20;4.88;;;2.28;;
29214;SDS011;16252;49.816;7.964;2022-08-21T07:57:47;3.85;;;2.50;;
29214;SDS011;16252;49.816;7.964;2022-08-21T08:00:14;2.90;;;1.95;;
29214;SDS011;16252;49.816;7.964;2022-08-21T08:02:47;4.50;;;2.03;;
29214;SDS011;16252;49.816;7.964;2022-08-21T08:05:17;4.47;;;2.20;;
29214;SDS011;16252;49.816;7.964;2022-08-21T08:07:44;4.32;;;1.88;;
29214;SDS011;16252;49.816;7.964;2022-08-21T08:10:09;5.20;;;2.58;;
29214;SDS011;16252;49.816;7.964;2022-08-21T08:12:36;4.35;;;2.08;;
29214;SDS011;16252;49.816;7.964;2022-08-21T08:15:04;5.32;;;2.28;;
29214;SDS011;16252;49.816;7.964;2022-08-21T08:17:31;4.65;;;2.42;;
29214;SDS011;16252;49.816;7.964;2022-08-21T08:19:57;4.75;;;2.53;;
29214;SDS011;16252;49.816;7.964;2022-08-21T08:22:22;4.32;;;2.28;;
29214;SDS011;16252;49.816;7.964;2022-08-21T08:24:49;3.63;;;2.55;;
29214;SDS011;16252;49.816;7.964;2022-08-21T08:27:15;5.82;;;2.22;;
29214;SDS011;16252;49.816;7.964;2022-08-21T08:29:42;4.45;;;2.40;;
29214;SDS011;16252;49.816;7.964;2022-08-21T08:32:07;4.35;;;2.70;;
29214;SDS011;16252;49.816;7.964;2022-08-21T08:34:34;4.60;;;2.40;;
29214;SDS011;16252;49.816;7.964;2022-08-21T08:37:00;4.90;;;2.42;;
29214;SDS011;16252;49.816;7.964;2022-08-21T08:39:25;5.45;;;2.67;;
29214;SDS011;16252;49.816;7.964;2022-08-21T08:41:54;5.35;;;2.47;;
29214;SDS011;16252;49.816;7.964;2022-08-21T08:44:26;5.57;;;2.83;;
29214;SDS011;16252;49.816;7.964;2022-08-21T08:46:52;4.05;;;2.63;;
29214;SDS011;16252;49.816;7.964;2022-08-21T08:49:27;4.00;;;2.50;;
29214;SDS011;16252;49.816;7.964;2022-08-21T08:52:05;5.28;;;2.78;;
29214;SDS011;16252;49.816;7.964;2022-08-21T08:54:42;2.72;;;2.17;;
29214;SDS011;16252;49.816;7.964;2022-08-21T08:57:14;4.82;;;2.60;;
29214;SDS011;16252;49.816;7.964;2022-08-21T08:59:43;4.15;;;2.08;;
29214;SDS011;16252;49.816;7.964;2022-08-21T09:02:14;3.15;;;1.70;;
29214;SDS011;16252;49.816;7.964;2022-08-21T09:04:41;5.65;;;2.25;;
29214;SDS011;16252;49.816;7.964;2022-08-21T09:12:59;3.90;;;1.80;;
29214;SDS011;16252;49.816;7.964;2022-08-21T09:15:29;2.65;;;1.48;;
29214;SDS011;16252;49.816;7.964;2022-08-21T09:20:32;2.53;;;1.33;;
29214;SDS011;16252;49.816;7.964;2022-08-21T09:23:15;3.45;;;1.55;;
29214;SDS011;16252;49.816;7.964;2022-08-21T09:28:21;4.88;;;2.03;;
29214;SDS011;16252;49.816;7.964;2022-08-21T09:30:46;3.00;;;1.55;;
29214;SDS011;16252;49.816;7.964;2022-08-21T09:33:12;2.17;;;1.60;;
29214;SDS011;16252;49.816;7.964;2022-08-21T09:35:47;4.15;;;1.88;;
29214;SDS011;16252;49.816;7.964;2022-08-21T09:38:24;3.78;;;1.52;;
29214;SDS011;16252;49.816;7.964;2022-08-21T09:40:56;2.47;;;1.70;;
29214;SDS011;16252;49.816;7.964;2022-08-21T09:43:25;2.55;;;1.70;;
29214;SDS011;16252;49.816;7.964;2022-08-21T09:46:08;5.00;;;1.95;;
29214;SDS011;16252;49.816;7.964;2022-08-21T09:48:45;2.50;;;1.55;;
29214;SDS011;16252;49.816;7.964;2022-08-21T09:51:15;3.58;;;2.20;;
29214;SDS011;16252;49.816;7.964;2022-08-21T09:53:44;2.83;;;1.65;;
29214;SDS011;16252;49.816;7.964;2022-08-21T09:59:14;3.30;;;1.73;;
29214;SDS011;16252;49.816;7.964;2022-08-21T10:01:42;2.55;;;1.50;;
29214;SDS011;16252;49.816;7.964;2022-08-21T10:04:10;2.50;;;1.50;;
29214;SDS011;16252;49.816;7.964;2022-08-21T10:06:35;3.47;;;1.83;;
29214;SDS011;16252;49.816;7.964;2022-08-21T10:09:08;2.63;;;1.60;;
29214;SDS011;16252;49.816;7.964;2022-08-21T10:11:37;2.17;;;1.33;;
29214;SDS011;16252;49.816;7.964;2022-08-21T10:14:15;2.35;;;1.48;;
29214;SDS011;16252;49.816;7.964;2022-08-21T10:22:36;2.92;;;1.45;;
29214;SDS011;16252;49.816;7.964;2022-08-21T10:28:11;3.17;;;1.48;;
29214;SDS011;16252;49.816;7.964;2022-08-21T10:30:50;1.70;;;1.30;;
29214;SDS011;16252;49.816;7.964;2022-08-21T10:36:02;2.90;;;2.03;;
29214;SDS011;16252;49.816;7.964;2022-08-21T10:38:42;1.88;;;1.30;;
29214;SDS011;16252;49.816;7.964;2022-08-21T10:47:12;2.60;;;1.70;;
29214;SDS011;16252;49.816;7.964;2022-08-21T10:49:57;3.33;;;1.75;;
29214;SDS011;16252;49.816;7.964;2022-08-21T10:55:10;1.75;;;1.38;;
29214;SDS011;16252;49.816;7.964;2022-08-21T10:58:01;2.75;;;1.50;;
29214;SDS011;16252;49.816;7.964;2022-08-21T11:00:41;3.03;;;1.60;;
29214;SDS011;16252;49.816;7.964;2022-08-21T11:03:12;2.15;;;1.45;;
29214;SDS011;16252;49.816;7.964;2022-08-21T11:05:52;2.60;;;1.45;;
29214;SDS011;16252;49.816;7.964;2022-08-21T11:10:57;3.63;;;1.85;;
29214;SDS011;16252;49.816;7.964;2022-08-21T11:13:37;3.03;;;1.55;;
29214;SDS011;16252;49.816;7.964;2022-08-21T11:16:09;3.10;;;1.50;;
29214;SDS011;16252;49.816;7.964;2022-08-21T11:24:43;2.20;;;1.35;;
29214;SDS011;16252;49.816;7.964;2022-08-21T11:30:00;2.45;;;1.60;;
29214;SDS011;16252;49.816;7.964;2022-08-21T11:35:00;2.80;;;1.40;;
29214;SDS011;16252;49.816;7.964;2022-08-21T11:40:22;2.42;;;1.33;;
29214;SDS011;16252;49.816;7.964;2022-08-21T11:42:54;3.20;;;1.85;;
29214;SDS011;16252;49.816;7.964;2022-08-21T11:45:27;3.92;;;1.50;;
29214;SDS011;16252;49.816;7.964;2022-08-21T11:51:04;4.88;;;1.70;;
29214;SDS011;16252;49.816;7.964;2022-08-21T11:53:38;4.38;;;1.80;;
29214;SDS011;16252;49.816;7.964;2022-08-21T11:56:17;3.25;;;2.00;;
29214;SDS011;16252;49.816;7.964;2022-08-21T11:58:48;3.05;;;1.70;;
29214;SDS011;16252;49.816;7.964;2022-08-21T12:01:21;3.40;;;1.90;;
29214;SDS011;16252;49.816;7.964;2022-08-21T12:06:41;4.18;;;1.73;;
29214;SDS011;16252;49.816;7.964;2022-08-21T12:09:08;2.67;;;1.67;;
29214;SDS011;16252;49.816;7.964;2022-08-21T12:11:50;3.13;;;1.70;;
29214;SDS011;16252;49.816;7.964;2022-08-21T12:15:28;2.58;;;1.58;;
29214;SDS011;16252;49.816;7.964;2022-08-21T12:17:50;2.33;;;1.80;;
29214;SDS011;16252;49.816;7.964;2022-08-21T12:20:37;3.85;;;1.73;;
29214;SDS011;16252;49.816;7.964;2022-08-21T12:25:38;2.97;;;1.45;;
29214;SDS011;16252;49.816;7.964;2022-08-21T12:28:22;1.73;;;1.52;;
29214;SDS011;16252;49.816;7.964;2022-08-21T12:30:49;3.63;;;1.50;;
29214;SDS011;16252;49.816;7.964;2022-08-21T12:33:27;1.92;;;1.30;;
29214;SDS011;16252;49.816;7.964;2022-08-21T12:36:11;2.15;;;1.40;;
29214;SDS011;16252;49.816;7.964;2022-08-21T12:41:27;3.58;;;1.70;;
29214;SDS011;16252;49.816;7.964;2022-08-21T12:43:58;3.67;;;1.30;;
29214;SDS011;16252;49.816;7.964;2022-08-21T12:46:58;2.55;;;1.63;;
29214;SDS011;16252;49.816;7.964;2022-08-21T12:49:29;1.90;;;1.38;;
29214;SDS011;16252;49.816;7.964;2022-08-21T12:52:11;1.65;;;1.35;;
29214;SDS011;16252;49.816;7.964;2022-08-21T12:54:44;3.92;;;1.35;;
29214;SDS011;16252;49.816;7.964;2022-08-21T12:57:17;2.63;;;1.58;;
29214;SDS011;16252;49.816;7.964;2022-08-21T12:59:51;2.63;;;1.70;;
29214;SDS011;16252;49.816;7.964;2022-08-21T13:02:31;2.33;;;1.40;;
29214;SDS011;16252;49.816;7.964;2022-08-21T13:05:02;2.80;;;1.52;;
29214;SDS011;16252;49.816;7.964;2022-08-21T13:07:30;2.08;;;1.30;;
29214;SDS011;16252;49.816;7.964;2022-08-21T13:10:04;4.03;;;1.70;;
29214;SDS011;16252;49.816;7.964;2022-08-21T13:12:38;2.67;;;1.35;;
29214;SDS011;16252;49.816;7.964;2022-08-21T13:15:07;3.08;;;1.50;;
29214;SDS011;16252;49.816;7.964;2022-08-21T13:17:34;1.90;;;1.52;;
29214;SDS011;16252;49.816;7.964;2022-08-21T13:20:05;3.90;;;1.83;;
29214;SDS011;16252;49.816;7.964;2022-08-21T13:22:39;4.55;;;1.50;;
29214;SDS011;16252;49.816;7.964;2022-08-21T13:25:09;1.63;;;1.20;;
29214;SDS011;16252;49.816;7.964;2022-08-21T13:27:37;2.33;;;1.20;;
29214;SDS011;16252;49.816;7.964;2022-08-21T13:30:07;3.15;;;1.60;;
29214;SDS011;16252;49.816;7.964;2022-08-21T13:32:44;2.65;;;1.73;;
29214;SDS011;16252;49.816;7.964;2022-08-21T13:35:25;3.15;;;1.73;;
29214;SDS011;16252;49.816;7.964;2022-08-21T13:37:52;2.17;;;1.38;;
29214;SDS011;16252;49.816;7.964;2022-08-21T13:40:29;2.17;;;1.40;;
29214;SDS011;16252;49.816;7.964;2022-08-21T13:42:57;2.65;;;1.50;;
29214;SDS011;16252;49.816;7.964;2022-08-21T13:45:26;2.28;;;1.30;;
29214;SDS011;16252;49.816;7.964;2022-08-21T13:47:57;2.40;;;1.45;;
29214;SDS011;16252;49.816;7.964;2022-08-21T13:50:25;2.25;;;1.33;;
29214;SDS011;16252;49.816;7.964;2022-08-21T13:52:56;1.77;;;1.15;;
29214;SDS011;16252;49.816;7.964;2022-08-21T13:55:34;2.45;;;1.75;;
29214;SDS011;16252;49.816;7.964;2022-08-21T13:58:07;2.50;;;1.20;;
29214;SDS011;16252;49.816;7.964;2022-08-21T14:00:35;3.05;;;1.40;;
29214;SDS011;16252;49.816;7.964;2022-08-21T14:03:09;1.77;;;1.13;;
29214;SDS011;16252;49.816;7.964;2022-08-21T14:05:43;1.88;;;1.63;;
29214;SDS011;16252;49.816;7.964;2022-08-21T14:08:11;1.83;;;1.40;;
29214;SDS011;16252;49.816;7.964;2022-08-21T14:10:47;2.70;;;1.52;;
29214;SDS011;16252;49.816;7.964;2022-08-21T14:13:23;1.98;;;1.42;;
29214;SDS011;16252;49.816;7.964;2022-08-21T14:15:56;2.90;;;2.05;;
29214;SDS011;16252;49.816;7.964;2022-08-21T14:18:23;2.67;;;1.50;;
29214;SDS011;16252;49.816;7.964;2022-08-21T14:20:51;2.17;;;1.25;;
29214;SDS011;16252;49.816;7.964;2022-08-21T14:23:27;2.45;;;1.42;;
29214;SDS011;16252;49.816;7.964;2022-08-21T14:25:53;2.63;;;1.23;;
29214;SDS011;16252;49.816;7.964;2022-08-21T14:28:25;2.15;;;1.65;;
29214;SDS011;16252;49.816;7.964;2022-08-21T14:30:53;2.28;;;1.58;;
29214;SDS011;16252;49.816;7.964;2022-08-21T14:33:33;2.42;;;1.23;;
29214;SDS011;16252;49.816;7.964;2022-08-21T14:35:58;2.25;;;1.58;;
29214;SDS011;16252;49.816;7.964;2022-08-21T14:38:24;2.58;;;1.48;;
29214;SDS011;16252;49.816;7.964;2022-08-21T14:40:55;5.40;;;1.50;;
29214;SDS011;16252;49.816;7.964;2022-08-21T14:43:22;2.50;;;1.45;;
29214;SDS011;16252;49.816;7.964;2022-08-21T14:45:50;2.38;;;1.13;;
29214;SDS011;16252;49.816;7.964;2022-08-21T14:48:15;1.95;;;1.35;;
29214;SDS011;16252;49.816;7.964;2022-08-21T14:50:40;2.20;;;1.40;;
29214;SDS011;16252;49.816;7.964;2022-08-21T14:53:06;1.90;;;1.40;;
29214;SDS011;16252;49.816;7.964;2022-08-21T14:55:32;2.22;;;1.27;;
29214;SDS011;16252;49.816;7.964;2022-08-21T14:58:18;1.80;;;1.08;;
29214;SDS011;16252;49.816;7.964;2022-08-21T15:00:43;1.67;;;1.20;;
29214;SDS011;16252;49.816;7.964;2022-08-21T15:03:09;2.70;;;1.23;;
29214;SDS011;16252;49.816;7.964;2022-08-21T15:05:34;2.17;;;1.30;;
29214;SDS011;16252;49.816;7.964;2022-08-21T15:07:59;3.50;;;1.40;;
29214;SDS011;16252;49.816;7.964;2022-08-21T15:10:24;2.65;;;1.42;;
29214;SDS011;16252;49.816;7.964;2022-08-21T15:12:50;4.15;;;1.45;;
29214;SDS011;16252;49.816;7.964;2022-08-21T15:15:15;2.35;;;1.40;;
29214;SDS011;16252;49.816;7.964;2022-08-21T15:17:40;1.83;;;1.25;;
29214;SDS011;16252;49.816;7.964;2022-08-21T15:20:06;2.22;;;1.30;;
29214;SDS011;16252;49.816;7.964;2022-08-21T15:22:34;2.20;;;1.23;;
29214;SDS011;16252;49.816;7.964;2022-08-21T15:24:59;1.95;;;1.38;;
29214;SDS011;16252;49.816;7.964;2022-08-21T15:27:26;3.00;;;1.35;;
29214;SDS011;16252;49.816;7.964;2022-08-21T15:29:51;1.88;;;1.10;;
29214;SDS011;16252;49.816;7.964;2022-08-21T15:32:25;3.17;;;1.83;;
29214;SDS011;16252;49.816;7.964;2022-08-21T15:34:54;2.58;;;1.70;;
29214;SDS011;16252;49.816;7.964;2022-08-21T15:37:21;2.30;;;1.45;;
29214;SDS011;16252;49.816;7.964;2022-08-21T15:39:48;1.55;;;1.10;;
29214;SDS011;16252;49.816;7.964;2022-08-21T15:42:14;1.70;;;1.10;;
29214;SDS011;16252;49.816;7.964;2022-08-21T15:44:39;3.45;;;1.35;;
29214;SDS011;16252;49.816;7.964;2022-08-21T15:47:07;1.98;;;1.05;;
29214;SDS011;16252;49.816;7.964;2022-08-21T15:49:36;2.10;;;1.23;;
29214;SDS011;16252;49.816;7.964;2022-08-21T15:52:01;4.82;;;2.05;;
29214;SDS011;16252;49.816;7.964;2022-08-21T15:54:26;2.78;;;1.58;;
29214;SDS011;16252;49.816;7.964;2022-08-21T15:56:52;2.13;;;1.50;;
29214;SDS011;16252;49.816;7.964;2022-08-21T15:59:20;1.35;;;1.15;;
29214;SDS011;16252;49.816;7.964;2022-08-21T16:01:47;3.97;;;1.52;;